Last 7 Days

Abernathy 1 (AB1)

Hourly Data | America/Los_Angeles
as of 10/22/18 12:39 PM PDT
Date Time Temp (°F) RH (%) Dew Pt (°F) Wind Spd ( mph) Wind Dir (°) Wind Gust ( mph) Wind Gst Dir (°) Latest Rain (In) Solar Rad Tot Hr (Cal/cm2) Daily Rain (In) Min Temp (°F) Max Temp (°F) Day
10/22/18 0900 52.4 87 48.7 4.2 SW | 231 8.4 SW | 234 0.00 14 0.00 49.7 57.5 10/22/18
10/22/18 0800 50.2 90 47.4 4.9 SW | 230 8.8 SW | 227 0.00 1 0.00 49.7 57.5 10/22/18
10/22/18 0700 50.9 89 47.8 6.7 SW | 225 12.3 WSW | 246 0.00 0 0.00 50.4 57.5 10/22/18
10/22/18 0600 52.2 85 47.9 6.2 SW | 227 11.5 WSW | 243 0.00 0 0.00 51.5 57.5 10/22/18
10/22/18 0500 53.0 82 47.8 6.3 SW | 226 10.8 SSW | 204 0.00 0 0.00 52.2 57.5 10/22/18
10/22/18 0400 54.1 81 48.3 6.0 SW | 219 9.8 WSW | 242 0.00 0 0.00 53.6 57.5 10/22/18
10/22/18 0300 55.0 79 48.7 6.3 SW | 228 11.6 SW | 222 0.00 0 0.00 54.1 57.5 10/22/18
10/22/18 0200 55.9 78 49.0 6.1 SW | 231 10.8 SW | 232 0.00 0 0.00 55.4 57.5 10/22/18
10/22/18 0100 56.7 74 48.6 6.0 SW | 235 10.6 SW | 231 0.00 0 0.00 55.9 57.5 10/22/18
10/22/18 0000 57.0 74 48.9 6.3 SW | 235 10.8 SSW | 196 0.00 0 0.00 39.8 78.7 10/21/18
10/21/18 2300 57.9 73 49.2 6.5 SW | 235 10.8 SW | 215 0.00 0 0.00 39.8 78.7 10/21/18
10/21/18 2200 59.0 70 49.0 6.8 SW | 236 11.5 WSW | 237 0.00 0 0.00 39.8 78.7 10/21/18
10/21/18 2100 60.4 68 49.7 5.8 SW | 219 11.0 WSW | 243 0.00 0 0.00 39.8 78.7 10/21/18
10/21/18 2000 62.6 65 51.0 5.9 SW | 225 10.0 SW | 231 0.00 0 0.00 39.8 78.7 10/21/18
10/21/18 1900 64.5 64 52.0 7.9 WSW | 240 13.5 WSW | 243 0.00 1 0.00 39.8 78.7 10/21/18
10/21/18 1800 70.6 53 52.4 7.8 WSW | 241 14.5 S | 181 0.00 12 0.00 39.8 78.7 10/21/18
10/21/18 1700 76.5 39 49.7 6.9 SW | 232 12.0 WSW | 253 0.00 28 0.00 39.8 78.7 10/21/18
10/21/18 1600 77.0 35 47.1 6.6 SW | 226 11.0 WSW | 245 0.00 42 0.00 39.8 78.4 10/21/18
10/21/18 1500 75.8 37 47.7 6.3 SW | 228 10.1 WSW | 248 0.00 52 0.00 39.8 77.2 10/21/18
10/21/18 1400 71.7 44 48.9 6.2 SW | 224 10.8 SSW | 212 0.00 58 0.00 39.8 73.4 10/21/18
10/21/18 1300 69.1 49 49.2 5.8 SW | 217 9.5 SSW | 207 0.00 59 0.00 39.8 70.1 10/21/18
10/21/18 1200 66.3 54 49.2 5.3 SSW | 213 8.8 SSW | 204 0.00 54 0.00 39.8 68.4 10/21/18
10/21/18 1100 62.5 62 49.1 5.0 SW | 223 8.3 SW | 235 0.00 44 0.00 39.8 65.1 10/21/18
10/21/18 1000 57.0 74 48.7 4.6 WSW | 237 7.8 WSW | 251 0.00 30 0.00 39.8 60.5 10/21/18
10/21/18 0900 47.8 89 44.6 2.4 WSW | 240 7.3 S | 177 0.00 15 0.00 39.8 57.6 10/21/18
10/21/18 0800 40.6 88 37.2 0.0 N | 0 0.0 N | 0 0.00 1 0.00 39.8 57.6 10/21/18
10/21/18 0700 43.0 87 39.4 0.4 WSW | 255 4.4 WSW | 240 0.00 0 0.00 41.4 57.6 10/21/18
10/21/18 0600 47.4 87 43.7 0.7 WSW | 244 3.6 SSW | 213 0.00 0 0.00 43.7 57.6 10/21/18
10/21/18 0500 50.2 87 46.4 1.9 WSW | 238 4.3 WSW | 243 0.00 0 0.00 48.5 57.6 10/21/18
10/21/18 0400 51.7 84 47.1 2.3 WSW | 246 5.9 WSW | 241 0.00 0 0.00 49.6 57.6 10/21/18
10/21/18 0300 54.2 82 48.8 3.6 SW | 232 6.6 SSW | 197 0.00 0 0.00 53.0 57.6 10/21/18
10/21/18 0200 55.5 82 50.0 4.0 SW | 230 7.6 SW | 229 0.00 0 0.00 54.4 57.6 10/21/18
10/21/18 0100 56.3 82 50.8 3.6 SW | 227 7.6 S | 191 0.00 0 0.00 54.4 57.6 10/21/18
10/21/18 0000 57.8 79 51.4 4.1 SW | 216 9.1 SSW | 203 0.00 0 0.00 43.5 85.6 10/20/18
10/20/18 2300 59.2 75 51.3 4.5 WSW | 241 8.6 SW | 226 0.00 0 0.00 43.5 85.6 10/20/18
10/20/18 2200 61.4 71 51.9 5.6 SW | 235 9.1 S | 190 0.00 0 0.00 43.5 85.6 10/20/18
10/20/18 2100 61.6 61 47.9 3.1 WSW | 247 8.0 WSW | 239 0.00 0 0.00 43.5 85.6 10/20/18
10/20/18 2000 65.4 51 46.6 2.5 WSW | 245 5.1 SSW | 200 0.00 0 0.00 43.5 85.6 10/20/18
10/20/18 1900 72.3 39 45.8 2.7 SSW | 205 5.6 S | 191 0.00 1 0.00 43.5 85.6 10/20/18
10/20/18 1800 78.2 29 43.8 3.2 SW | 229 7.3 WSW | 251 0.00 13 0.00 43.5 85.6 10/20/18
10/20/18 1700 83.2 28 46.9 3.9 SW | 226 9.0 WSW | 241 0.00 28 0.00 43.5 85.6 10/20/18
10/20/18 1600 84.6 23 43.1 2.2 SSE | 154 6.6 SSE | 147 0.00 42 0.00 43.5 85.6 10/20/18
10/20/18 1500 84.9 23 42.7 2.0 SSE | 152 5.4 SE | 125 0.00 53 0.00 43.5 85.6 10/20/18
10/20/18 1400 83.6 24 42.9 1.9 SE | 135 5.6 SSE | 160 0.00 58 0.00 43.5 84.7 10/20/18
10/20/18 1300 81.6 26 43.6 1.8 SE | 134 5.3 SE | 139 0.00 58 0.00 43.5 83.6 10/20/18
10/20/18 1200 77.7 34 47.1 1.4 SE | 140 4.6 ESE | 102 0.00 53 0.00 43.5 80.3 10/20/18
10/20/18 1100 71.8 48 50.8 1.1 SSE | 158 4.1 ESE | 122 0.00 44 0.00 43.5 75.9 10/20/18
10/20/18 1000 63.2 57 47.4 0.4 NNE | 30 2.9 ENE | 62 0.00 30 0.00 43.5 67.3 10/20/18
10/20/18 0900 53.3 71 44.2 0.8 WSW | 251 3.6 WSW | 251 0.00 14 0.00 43.5 58.4 10/20/18
10/20/18 0800 46.9 81 41.3 1.4 W | 259 2.9 W | 270 0.00 1 0.00 43.5 55.4 10/20/18
10/20/18 0700 47.1 82 41.9 1.3 W | 266 3.3 WSW | 249 0.00 0 0.00 43.5 55.4 10/20/18
10/20/18 0600 44.8 82 39.7 1.4 W | 260 3.4 WNW | 282 0.00 0 0.00 43.5 55.4 10/20/18
10/20/18 0500 45.6 79 39.5 0.0 NW | 314 1.4 NW | 316 0.00 0 0.00 43.9 55.4 10/20/18
10/20/18 0400 47.8 76 40.7 0.2 NNE | 26 2.2 NNE | 31 0.00 0 0.00 46.7 55.4 10/20/18
10/20/18 0300 52.2 72 43.3 0.4 WSW | 254 2.4 WSW | 237 0.00 0 0.00 48.1 55.4 10/20/18
10/20/18 0200 52.4 74 44.3 1.1 WSW | 245 3.3 WNW | 282 0.00 0 0.00 50.8 55.2 10/20/18
10/20/18 0100 52.6 70 43.0 0.5 W | 270 2.1 W | 267 0.00 0 0.00 51.6 53.6 10/20/18
10/20/18 0000 53.5 68 43.2 0.4 W | 266 2.7 WSW | 251 0.00 0 0.00 42.6 86.4 10/19/18
10/19/18 2300 55.0 65 43.3 0.9 W | 264 2.7 W | 267 0.00 0 0.00 42.6 86.4 10/19/18
10/19/18 2200 57.1 61 43.7 0.7 WSW | 256 2.6 WSW | 239 0.00 0 0.00 42.6 86.4 10/19/18
10/19/18 2100 61.6 52 44.1 0.9 W | 275 2.6 NW | 316 0.00 0 0.00 42.6 86.4 10/19/18
10/19/18 2000 67.8 41 43.3 1.3 SW | 233 3.8 SW | 228 0.00 0 0.00 42.6 86.4 10/19/18
10/19/18 1900 73.7 34 43.5 2.4 WSW | 237 5.3 SW | 220 0.00 1 0.00 42.6 86.4 10/19/18
10/19/18 1800 81.7 26 43.0 2.8 SW | 216 6.4 SW | 236 0.00 12 0.00 42.6 86.4 10/19/18
10/19/18 1700 84.8 21 41.1 2.1 SSW | 204 5.6 S | 187 0.00 28 0.00 42.6 86.4 10/19/18
10/19/18 1600 85.5 22 42.0 2.5 SSW | 199 6.4 SW | 230 0.00 42 0.00 42.6 86.4 10/19/18
10/19/18 1500 85.6 21 41.8 2.9 SSE | 158 7.4 SSE | 154 0.00 52 0.00 42.6 86.4 10/19/18
10/19/18 1400 84.3 23 42.1 2.0 ESE | 118 6.9 SE | 130 0.00 58 0.00 42.6 86.2 10/19/18
10/19/18 1300 80.4 27 43.6 1.6 E | 97 6.1 E | 89 0.00 58 0.00 42.6 83.0 10/19/18
10/19/18 1200 74.1 40 48.3 1.4 NE | 43 4.8 ESE | 110 0.00 51 0.00 42.6 76.7 10/19/18
10/19/18 1100 70.1 47 49.3 2.2 ESE | 117 5.4 SSE | 148 0.00 44 0.00 42.6 72.6 10/19/18
10/19/18 1000 62.8 55 46.3 2.0 ENE | 76 6.3 ESE | 111 0.00 31 0.00 42.6 67.5 10/19/18
10/19/18 0900 49.0 82 43.7 0.1 N | 351 2.1 N | 354 0.00 15 0.00 42.6 56.4 10/19/18
10/19/18 0800 43.4 86 39.7 0.2 W | 260 1.9 W | 262 0.00 1 0.00 42.6 53.5 10/19/18
10/19/18 0700 43.6 84 39.2 0.3 W | 276 2.4 NW | 309 0.00 0 0.00 42.6 53.5 10/19/18
10/19/18 0600 44.4 82 39.1 0.2 WSW | 250 2.1 WSW | 242 0.00 0 0.00 43.7 53.5 10/19/18
10/19/18 0500 45.5 80 39.7 0.3 NW | 316 2.6 NNW | 330 0.00 0 0.00 44.1 53.5 10/19/18
10/19/18 0400 47.5 79 41.4 0.1 N | 353 1.6 NNW | 347 0.00 0 0.00 46.3 53.5 10/19/18
10/19/18 0300 49.6 80 43.8 0.6 WNW | 292 2.9 SW | 231 0.00 0 0.00 48.2 53.5 10/19/18
10/19/18 0200 49.1 77 42.1 0.4 WSW | 258 2.2 SW | 219 0.00 0 0.00 48.2 53.5 10/19/18
10/19/18 0100 51.9 74 44.0 0.4 W | 264 2.2 WSW | 258 0.00 0 0.00 49.8 53.5 10/19/18
10/19/18 0000 53.0 73 44.5 0.4 WSW | 255 2.6 WSW | 256 0.00 0 0.00 41.0 83.1 10/18/18
10/18/18 2300 53.4 69 43.7 0.8 W | 261 2.4 WSW | 250 0.00 0 0.00 41.0 83.1 10/18/18
10/18/18 2200 55.4 66 44.2 0.1 NW | 304 1.6 NW | 316 0.00 0 0.00 41.0 83.1 10/18/18
10/18/18 2100 61.3 58 46.4 0.6 W | 270 2.6 SW | 232 0.00 0 0.00 41.0 83.1 10/18/18
10/18/18 2000 65.9 48 45.5 2.6 SW | 230 4.9 SW | 232 0.00 0 0.00 41.0 83.1 10/18/18
10/18/18 1900 71.6 36 43.4 2.8 SW | 224 6.6 SW | 228 0.00 1 0.00 41.0 83.1 10/18/18
10/18/18 1800 78.3 28 42.6 3.6 SW | 227 7.1 W | 268 0.00 13 0.00 41.0 83.1 10/18/18
10/18/18 1700 81.6 25 42.2 2.0 S | 169 5.3 S | 178 0.00 29 0.00 41.0 83.1 10/18/18
10/18/18 1600 82.4 27 44.9 2.2 S | 177 6.8 SSW | 204 0.00 43 0.00 41.0 83.1 10/18/18
10/18/18 1500 81.5 28 45.0 1.7 ESE | 121 5.8 SSE | 149 0.00 53 0.00 41.0 82.9 10/18/18
10/18/18 1400 80.1 29 44.9 1.7 ESE | 117 6.4 ENE | 70 0.00 59 0.00 41.0 82.6 10/18/18
10/18/18 1300 76.2 34 45.9 1.8 E | 96 5.6 E | 83 0.00 56 0.00 41.0 78.6 10/18/18
10/18/18 1200 72.1 43 48.6 1.6 SSE | 166 5.3 SSE | 163 0.00 54 0.00 41.0 74.6 10/18/18
10/18/18 1100 67.3 51 48.7 1.2 ESE | 113 5.3 ESE | 123 0.00 45 0.00 41.0 70.7 10/18/18
10/18/18 1000 59.6 69 49.3 0.7 NW | 314 3.3 NW | 325 0.00 31 0.00 41.0 62.8 10/18/18
10/18/18 0900 50.3 87 46.6 0.9 W | 271 3.8 W | 260 0.00 16 0.00 41.0 57.1 10/18/18
10/18/18 0800 42.0 86 38.0 0.0 N | 0 0.0 W | 263 0.00 2 0.00 41.0 57.1 10/18/18
10/18/18 0700 42.9 82 37.8 0.1 WSW | 237 2.1 SW | 235 0.00 0 0.00 42.2 57.1 10/18/18
10/18/18 0600 49.7 78 43.2 1.3 WSW | 256 5.6 SW | 236 0.00 0 0.00 43.8 57.1 10/18/18
10/18/18 0500 54.6 78 48.1 4.7 SW | 229 8.6 SW | 227 0.00 0 0.00 53.6 57.1 10/18/18
10/18/18 0400 55.1 78 48.4 5.1 SW | 225 8.4 WSW | 244 0.00 0 0.00 54.6 57.1 10/18/18
10/18/18 0300 55.6 78 49.0 5.2 SW | 224 9.0 SW | 222 0.00 0 0.00 55.1 57.1 10/18/18
10/18/18 0200 56.2 79 49.9 5.1 SW | 222 8.8 SW | 214 0.00 0 0.00 55.4 57.1 10/18/18
10/18/18 0100 56.7 80 50.6 4.8 SW | 222 8.4 SSW | 210 0.00 0 0.00 56.3 57.1 10/18/18
10/18/18 0000 57.6 73 49.1 4.8 SW | 225 8.0 WSW | 247 0.00 0 0.00 39.4 82.4 10/17/18
10/17/18 2300 58.2 67 47.2 3.1 SW | 231 8.1 SSW | 211 0.00 0 0.00 39.4 82.4 10/17/18
10/17/18 2200 59.7 64 47.5 3.0 SW | 235 5.4 SW | 216 0.00 0 0.00 39.4 82.4 10/17/18
10/17/18 2100 61.6 64 49.3 4.2 SW | 226 7.8 SW | 236 0.00 0 0.00 39.4 82.4 10/17/18
10/17/18 2000 64.4 56 48.2 4.1 SW | 234 6.9 WSW | 246 0.00 0 0.00 39.4 82.4 10/17/18
10/17/18 1900 69.4 37 41.6 3.9 WSW | 238 8.1 SW | 236 0.00 1 0.00 39.4 82.4 10/17/18
10/17/18 1800 76.0 29 41.8 4.3 SW | 234 7.6 SW | 224 0.00 14 0.00 39.4 82.4 10/17/18
10/17/18 1700 80.9 23 39.7 3.2 SSW | 206 7.1 SSW | 210 0.00 29 0.00 39.4 82.4 10/17/18
10/17/18 1600 81.6 21 37.9 2.1 SSE | 162 6.1 WSW | 253 0.00 44 0.00 39.4 82.4 10/17/18
10/17/18 1500 81.7 22 38.8 2.5 SE | 143 6.9 SE | 140 0.00 54 0.00 39.4 82.4 10/17/18
10/17/18 1400 80.2 24 40.2 3.1 SE | 139 8.0 SE | 145 0.00 60 0.00 39.4 81.2 10/17/18
10/17/18 1300 78.0 29 43.1 2.5 SE | 126 7.3 E | 82 0.00 59 0.00 39.4 79.6 10/17/18
10/17/18 1200 74.0 35 44.5 1.5 SE | 136 4.8 ESE | 116 0.00 56 0.00 39.4 76.7 10/17/18
10/17/18 1100 68.2 43 45.0 1.0 SSW | 196 4.1 SSE | 149 0.00 46 0.00 39.4 72.3 10/17/18
10/17/18 1000 59.7 58 44.6 1.0 W | 267 3.6 W | 260 0.00 32 0.00 39.4 63.6 10/17/18
10/17/18 0900 46.9 68 36.7 0.5 NW | 308 2.7 NNW | 331 0.00 16 0.00 39.4 59.8 10/17/18
10/17/18 0800 40.0 78 33.5 0.0 NW | 316 1.4 NW | 304 0.00 2 0.00 39.4 59.8 10/17/18
10/17/18 0700 40.7 76 33.8 0.0 WNW | 298 0.9 WNW | 298 0.00 0 0.00 40.0 59.8 10/17/18
10/17/18 0600 41.3 78 35.0 0.0 NW | 326 1.9 N | 349 0.00 0 0.00 40.7 59.8 10/17/18
10/17/18 0500 42.8 78 36.3 0.1 WNW | 291 1.6 WNW | 285 0.00 0 0.00 41.2 59.8 10/17/18
10/17/18 0400 47.6 75 39.9 0.3 N | 359 2.6 E | 82 0.00 0 0.00 44.5 59.8 10/17/18
10/17/18 0300 54.2 70 44.6 2.0 WSW | 241 6.6 SW | 230 0.00 0 0.00 49.7 59.8 10/17/18
10/17/18 0200 57.0 65 45.4 3.9 SW | 235 7.1 WSW | 245 0.00 0 0.00 56.3 59.8 10/17/18
10/17/18 0100 58.8 62 46.1 6.0 SW | 224 10.3 WSW | 249 0.00 0 0.00 58.0 59.8 10/17/18
10/17/18 0000 59.8 56 44.2 5.6 SW | 226 11.1 SW | 226 0.00 0 0.00 38.7 86.3 10/16/18
10/16/18 2300 60.2 47 39.7 4.6 SW | 236 8.8 SW | 224 0.00 0 0.00 38.7 86.3 10/16/18
10/16/18 2200 61.8 41 38.0 4.9 SW | 233 8.4 SW | 214 0.00 0 0.00 38.7 86.3 10/16/18
10/16/18 2100 63.8 39 38.2 4.6 SW | 233 7.6 WSW | 254 0.00 0 0.00 38.7 86.3 10/16/18
10/16/18 2000 67.2 29 34.2 3.9 WSW | 242 7.8 WSW | 250 0.00 0 0.00 38.7 86.3 10/16/18
10/16/18 1900 72.1 28 36.9 6.0 WSW | 243 11.3 WSW | 245 0.00 1 0.00 38.7 86.3 10/16/18
10/16/18 1800 79.7 20 34.8 5.4 WSW | 246 10.3 SW | 219 0.00 15 0.00 38.7 86.3 10/16/18
10/16/18 1700 84.7 15 32.4 4.1 WSW | 250 8.3 SW | 226 0.00 31 0.00 38.7 86.3 10/16/18
10/16/18 1600 85.5 15 33.1 2.8 WSW | 254 8.1 WSW | 258 0.00 44 0.00 38.7 86.3 10/16/18
10/16/18 1500 85.1 16 34.0 2.5 WSW | 242 5.9 WSW | 245 0.00 55 0.00 38.7 86.0 10/16/18
10/16/18 1400 83.8 19 37.1 3.0 S | 189 8.3 SSW | 211 0.00 61 0.00 38.7 84.6 10/16/18
10/16/18 1300 82.2 21 38.4 2.8 S | 169 6.9 SW | 227 0.00 61 0.00 38.7 83.6 10/16/18
10/16/18 1200 78.7 24 38.7 2.8 SSE | 164 6.6 SSE | 156 0.00 52 0.00 38.7 81.0 10/16/18
10/16/18 1100 72.8 29 38.9 1.2 SSW | 198 5.1 W | 259 0.00 47 0.00 38.7 77.3 10/16/18
10/16/18 1000 63.6 34 34.5 0.5 NNW | 342 2.6 NW | 305 0.00 33 0.00 38.7 67.9 10/16/18
10/16/18 0900 49.2 49 30.7 0.3 NE | 36 2.1 NE | 51 0.00 17 0.00 38.7 58.7 10/16/18
10/16/18 0800 39.6 63 28.0 0.0 N | 7 1.6 NNE | 16 0.00 2 0.00 38.7 53.3 10/16/18
10/16/18 0700 39.7 64 28.4 0.0 N | 0 0.0 NE | 41 0.00 0 0.00 39.3 53.3 10/16/18
10/16/18 0600 41.2 61 28.6 0.0 NNE | 13 1.7 NE | 47 0.00 0 0.00 40.0 53.3 10/16/18
10/16/18 0500 42.6 57 28.2 0.0 NNW | 342 1.4 NNW | 343 0.00 0 0.00 41.5 53.3 10/16/18
10/16/18 0400 47.8 50 30.1 1.0 W | 263 4.6 SW | 234 0.00 0 0.00 44.8 53.3 10/16/18
10/16/18 0300 47.5 50 29.6 1.1 WSW | 254 3.3 SW | 221 0.00 0 0.00 46.3 53.3 10/16/18
10/16/18 0200 48.3 45 28.2 1.7 WSW | 251 3.8 WSW | 240 0.00 0 0.00 46.6 53.3 10/16/18
10/16/18 0100 51.3 39 27.2 1.6 WNW | 287 4.3 SW | 226 0.00 0 0.00 48.6 53.3 10/16/18
10/16/18 0000 49.2 44 28.2 1.1 WNW | 295 4.3 W | 266 0.00 0 0.00 47.8 85.7 10/15/18
10/15/18 2300 50.6 41 27.7 1.7 W | 263 3.8 WSW | 244 0.00 0 0.00 49.6 85.7 10/15/18
10/15/18 2200 52.0 40 28.3 0.7 W | 277 2.7 W | 260 0.00 0 0.00 50.3 85.7 10/15/18
10/15/18 2100 59.4 30 27.5 1.2 W | 273 4.4 WSW | 252 0.00 0 0.00 50.9 85.7 10/15/18
10/15/18 2000 65.2 23 26.8 2.4 WSW | 246 6.1 WSW | 243 0.00 0 0.00 50.9 85.7 10/15/18
10/15/18 1900 72.0 18 26.3 2.8 SW | 234 5.8 SW | 226 0.00 2 0.00 50.9 85.7 10/15/18
10/15/18 1800 80.9 11 22.2 3.2 SSW | 193 7.3 WSW | 251 0.00 15 0.00 50.9 85.7 10/15/18
10/15/18 1700 84.2 10 21.6 2.3 SSW | 192 11.0 S | 189 0.00 32 0.00 50.9 85.7 10/15/18
10/15/18 1600 84.6 10 21.0 3.1 NE | 37 9.5 ENE | 71 0.00 46 0.00 50.9 85.7 10/15/18
10/15/18 1500 84.1 10 20.5 6.3 ENE | 58 12.1 ENE | 57 0.00 57 0.00 50.9 85.7 10/15/18
10/15/18 1400 84.4 9 20.4 4.5 NE | 45 10.5 NE | 53 0.00 62 0.00 50.9 85.7 10/15/18
10/15/18 1300 83.2 9 19.4 2.2 WNW | 292 7.3 WNW | 301 0.00 63 0.00 50.9 84.8 10/15/18
Tip: Bookmark this page for easy future reference